Time;durP1;ratioP1;P1;durP2;ratioP2;P2;SDS_P1;SDS_P2;PMS_P1;PMS_P2;Temp;Humidity;BMP_temperature;BMP_pressure;BME280_temperature;BME280_humidity;BME280_pressure;Samples;Min_cycle;Max_cycle;Signal;HPM_P1;HPM_P2
2022/11/17 00:04:32;;;;;;;3.83;2.20;;;12.00;99.90;;;;;;10067045;28;20064;-61
2022/11/17 00:15:23;;;;;;;2.15;1.55;;;12.00;99.90;;;;;;10088735;28;20163;-61
2022/11/17 00:25:35;;;;;;;2.40;1.80;;;12.10;99.90;;;;;;10089218;28;20099;-60
2022/11/17 00:36:05;;;;;;;5.18;2.50;;;12.00;99.90;;;;;;10077478;28;20052;-59
2022/11/17 00:40:58;;;;;;;3.67;1.70;;;12.10;99.90;;;;;;10097119;28;20051;-64
2022/11/17 00:46:12;;;;;;;6.20;1.90;;;11.90;99.90;;;;;;10080752;28;20487;-65
2022/11/17 00:51:10;;;;;;;2.80;1.60;;;11.80;99.90;;;;;;10091296;28;21012;-60
2022/11/17 00:56:12;;;;;;;2.63;1.67;;;11.80;99.90;;;;;;10071411;28;20036;-61
2022/11/17 01:01:31;;;;;;;1.98;1.33;;;11.80;99.90;;;;;;10066908;28;20492;-64
2022/11/17 01:06:30;;;;;;;5.10;2.65;;;11.60;99.90;;;;;;10076278;28;20088;-63
2022/11/17 01:11:21;;;;;;;3.10;1.70;;;11.50;99.90;;;;;;10074851;28;20025;-60
2022/11/17 01:16:28;;;;;;;2.20;1.48;;;11.50;99.90;;;;;;10076469;28;20094;-61
2022/11/17 01:21:27;;;;;;;3.28;1.85;;;11.50;99.90;;;;;;10094362;28;20123;-61
2022/11/17 01:26:51;;;;;;;6.00;3.53;;;11.50;99.90;;;;;;10085087;28;20070;-60
2022/11/17 01:31:43;;;;;;;8.80;4.28;;;11.50;99.90;;;;;;10082720;28;20092;-67
2022/11/17 01:42:04;;;;;;;10.67;5.67;;;11.80;99.90;;;;;;10083770;28;20031;-70
2022/11/17 01:47:16;;;;;;;8.65;4.68;;;11.80;99.90;;;;;;10092660;28;20028;-61
2022/11/17 01:52:27;;;;;;;11.82;4.82;;;11.80;99.90;;;;;;10084312;28;20036;-61
2022/11/17 01:57:28;;;;;;;6.90;4.30;;;11.80;99.90;;;;;;10074333;28;20037;-67
2022/11/17 02:02:37;;;;;;;5.40;2.83;;;11.90;99.90;;;;;;10084865;28;20029;-63
2022/11/17 02:07:38;;;;;;;3.25;2.42;;;11.90;99.90;;;;;;10087727;28;20080;-66
2022/11/17 02:12:53;;;;;;;3.72;2.08;;;11.90;99.90;;;;;;10090483;28;20037;-63
2022/11/17 02:17:51;;;;;;;4.22;2.00;;;11.80;99.90;;;;;;10071400;28;20069;-69
2022/11/17 02:23:20;;;;;;;3.55;2.00;;;11.60;99.90;;;;;;10068627;28;20030;-69
2022/11/17 02:29:12;;;;;;;3.47;2.63;;;11.60;99.90;;;;;;10098051;28;20231;-59
2022/11/17 02:34:59;;;;;;;6.18;2.13;;;11.60;99.90;;;;;;10079722;28;20037;-65
2022/11/17 02:40:39;;;;;;;3.85;1.83;;;11.70;99.90;;;;;;10068347;28;20045;-69
2022/11/17 02:46:10;;;;;;;2.40;1.45;;;11.80;99.90;;;;;;10079886;28;20449;-68
2022/11/17 02:57:07;;;;;;;2.75;1.80;;;11.80;99.90;;;;;;10060117;28;20052;-64
2022/11/17 03:02:20;;;;;;;2.33;1.52;;;11.80;99.90;;;;;;10075922;28;20033;-64
2022/11/17 03:08:26;;;;;;;2.40;1.40;;;11.80;99.90;;;;;;10086425;28;20036;-60
2022/11/17 03:13:46;;;;;;;2.80;1.63;;;11.80;99.90;;;;;;10068032;28;20021;-65
2022/11/17 03:19:22;;;;;;;2.22;1.23;;;11.80;99.90;;;;;;10047461;28;20064;-68
2022/11/17 03:24:40;;;;;;;2.30;1.30;;;11.80;99.90;;;;;;10067651;28;20029;-61
2022/11/17 03:29:43;;;;;;;4.10;2.47;;;11.80;99.90;;;;;;10073992;28;20487;-65
2022/11/17 03:34:48;;;;;;;3.33;2.33;;;11.90;99.90;;;;;;10059245;28;20542;-67
2022/11/17 03:40:00;;;;;;;5.93;1.70;;;11.90;99.90;;;;;;10084020;28;20036;-70
2022/11/17 03:44:58;;;;;;;2.90;1.20;;;11.90;99.90;;;;;;10080944;28;20034;-61
2022/11/17 03:50:21;;;;;;;2.45;1.17;;;11.90;99.90;;;;;;10082843;28;20440;-64
2022/11/17 03:55:59;;;;;;;1.70;1.48;;;11.90;99.90;;;;;;10051803;28;20080;-67
2022/11/17 04:01:23;;;;;;;;;;;;;;;;;;;;;
2022/11/17 04:17:05;;;;;;;3.28;1.38;;;11.70;99.90;;;;;;10074573;28;20048;-72
2022/11/17 04:22:14;;;;;;;6.53;1.70;;;11.70;99.90;;;;;;10079013;28;20493;-71
2022/11/17 04:32:27;;;;;;;1.95;1.27;;;11.70;99.90;;;;;;10055896;28;20148;-71
2022/11/17 04:37:47;;;;;;;2.83;1.17;;;11.70;99.90;;;;;;10061703;28;20045;-70
2022/11/17 04:42:44;;;;;;;1.92;0.77;;;11.80;99.90;;;;;;10080509;28;20458;-68
2022/11/17 04:47:51;;;;;;;1.25;0.90;;;11.80;99.90;;;;;;10076539;28;20029;-71
2022/11/17 04:52:48;;;;;;;3.53;0.98;;;11.90;99.90;;;;;;10082420;28;20056;-68
2022/11/17 04:58:00;;;;;;;1.67;1.05;;;11.90;99.90;;;;;;10063926;28;20575;-66
2022/11/17 05:03:00;;;;;;;0.82;0.70;;;11.90;99.90;;;;;;10075880;28;20028;-68
2022/11/17 05:08:30;;;;;;;1.52;0.80;;;12.00;99.90;;;;;;10080226;28;20028;-70
2022/11/17 05:13:29;;;;;;;1.77;1.00;;;12.10;99.90;;;;;;10067461;28;20056;-71
2022/11/17 05:18:29;;;;;;;2.40;0.93;;;12.10;99.90;;;;;;10065714;28;20056;-69
2022/11/17 05:29:06;;;;;;;1.02;0.77;;;12.30;99.90;;;;;;10075528;28;20036;-69
2022/11/17 05:34:01;;;;;;;1.60;1.27;;;12.20;99.90;;;;;;10075640;28;21142;-61
2022/11/17 05:39:01;;;;;;;1.15;0.70;;;12.30;99.90;;;;;;10051265;28;20044;-60
2022/11/17 05:49:22;;;;;;;2.72;0.63;;;12.40;99.90;;;;;;10092374;28;20464;-60
2022/11/17 05:54:22;;;;;;;1.30;0.50;;;12.50;99.90;;;;;;10086395;28;20301;-64
2022/11/17 05:59:38;;;;;;;0.93;0.60;;;12.40;99.90;;;;;;10074970;28;20123;-62
2022/11/17 06:04:42;;;;;;;1.80;0.70;;;12.40;99.90;;;;;;10073828;28;20028;-68
2022/11/17 06:09:54;;;;;;;0.90;0.47;;;12.50;99.90;;;;;;10078698;28;20082;-61
2022/11/17 06:15:17;;;;;;;1.40;0.65;;;12.50;99.90;;;;;;10087733;28;20025;-65
2022/11/17 06:20:32;;;;;;;1.70;0.70;;;12.40;99.90;;;;;;10084097;28;20053;-67
2022/11/17 06:25:26;;;;;;;1.23;0.55;;;12.30;99.90;;;;;;10083012;28;20028;-62
2022/11/17 06:30:55;;;;;;;1.27;0.63;;;12.30;99.90;;;;;;10086062;28;20037;-61
2022/11/17 06:35:48;;;;;;;0.90;0.60;;;12.30;99.90;;;;;;10070034;28;20496;-61
2022/11/17 06:40:55;;;;;;;1.95;0.82;;;12.30;99.90;;;;;;10087549;28;20300;-63
2022/11/17 06:46:06;;;;;;;1.00;0.65;;;12.30;99.90;;;;;;10079616;28;20096;-62
2022/11/17 06:51:28;;;;;;;1.48;0.90;;;12.30;99.90;;;;;;10069173;28;20375;-62
2022/11/17 06:56:22;;;;;;;3.03;0.90;;;12.40;99.90;;;;;;10068124;28;20052;-60
2022/11/17 07:01:46;;;;;;;1.02;0.57;;;12.40;99.90;;;;;;10070647;28;20041;-60
2022/11/17 07:07:06;;;;;;;1.17;0.50;;;12.60;99.90;;;;;;10047975;28;20044;-61
2022/11/17 07:12:23;;;;;;;0.90;0.65;;;12.70;99.90;;;;;;10049251;28;20725;-62
2022/11/17 07:17:52;;;;;;;1.10;1.00;;;12.70;99.90;;;;;;10011227;28;20057;-61
2022/11/17 07:22:59;;;;;;;3.63;1.00;;;12.70;99.90;;;;;;10048626;28;20050;-61
2022/11/17 07:28:39;;;;;;;2.45;0.80;;;12.70;99.90;;;;;;10055071;28;20033;-59
2022/11/17 07:39:17;;;;;;;1.15;0.68;;;12.80;99.90;;;;;;10052179;28;20137;-59
2022/11/17 07:44:29;;;;;;;2.75;0.90;;;12.90;99.90;;;;;;10062259;28;20079;-60
2022/11/17 07:49:34;;;;;;;1.67;1.40;;;12.90;99.90;;;;;;10070732;28;20487;-60
2022/11/17 07:59:51;;;;;;;1.65;0.75;;;12.90;99.90;;;;;;10066681;28;21091;-60
2022/11/17 08:04:59;;;;;;;2.63;0.60;;;13.00;99.90;;;;;;10075225;28;20074;-59
2022/11/17 08:10:02;;;;;;;2.60;1.05;;;13.00;99.90;;;;;;10078263;28;20027;-67
2022/11/17 08:15:09;;;;;;;0.77;0.60;;;13.00;99.90;;;;;;10075834;28;20029;-62
2022/11/17 08:20:14;;;;;;;4.60;0.60;;;13.10;99.90;;;;;;10074021;28;20095;-62
2022/11/17 08:25:31;;;;;;;1.00;0.52;;;13.10;99.90;;;;;;10072040;28;20136;-60
2022/11/17 08:30:49;;;;;;;2.78;0.93;;;13.10;99.90;;;;;;10081990;28;20087;-61
2022/11/17 08:36:01;;;;;;;2.20;0.98;;;13.20;99.90;;;;;;10069175;28;20116;-61
2022/11/17 08:41:08;;;;;;;1.10;1.00;;;13.20;99.90;;;;;;10074905;28;20056;-59
2022/11/17 08:46:22;;;;;;;1.48;0.80;;;13.30;99.90;;;;;;10079617;28;20048;-59
2022/11/17 08:51:37;;;;;;;0.88;0.50;;;13.30;99.90;;;;;;10085839;28;20428;-63
2022/11/17 08:57:01;;;;;;;;;;;;;;;;;;;;;
2022/11/17 09:02:13;;;;;;;3.10;0.70;;;13.30;99.90;;;;;;10078057;28;20036;-61
2022/11/17 09:07:21;;;;;;;3.67;0.65;;;13.30;99.90;;;;;;10082026;28;20032;-65
2022/11/17 09:12:35;;;;;;;0.82;0.60;;;13.40;99.90;;;;;;10079320;28;20083;-59
2022/11/17 09:18:20;;;;;;;4.13;0.80;;;13.40;99.90;;;;;;10079170;28;20503;-61
2022/11/17 09:29:03;;;;;;;3.92;0.75;;;13.70;99.90;;;;;;10076502;28;20051;-59
2022/11/17 09:34:14;;;;;;;2.55;0.80;;;13.60;99.90;;;;;;10058049;28;20041;-58
2022/11/17 09:39:08;;;;;;;1.52;0.68;;;13.60;99.90;;;;;;10069382;28;20059;-58
2022/11/17 09:44:14;;;;;;;3.65;1.40;;;13.80;99.90;;;;;;10072832;28;20044;-61
2022/11/17 09:49:15;;;;;;;6.20;1.10;;;13.80;99.90;;;;;;10067219;28;20021;-61
2022/11/17 09:54:19;;;;;;;2.28;1.67;;;13.90;99.90;;;;;;10065920;28;20568;-62
2022/11/17 09:59:14;;;;;;;2.03;0.75;;;14.00;99.90;;;;;;10069884;28;20483;-59
2022/11/17 10:04:11;;;;;;;3.47;1.20;;;14.20;99.90;;;;;;10072095;28;20531;-59
2022/11/17 10:09:16;;;;;;;3.67;0.93;;;14.50;99.90;;;;;;10075166;28;20090;-59
2022/11/17 10:14:07;;;;;;;3.60;0.88;;;14.60;99.90;;;;;;10075332;28;20023;-60
2022/11/17 10:19:01;;;;;;;3.70;0.90;;;14.60;99.90;;;;;;10081782;28;20369;-62
2022/11/17 10:24:00;;;;;;;3.42;0.77;;;14.60;99.90;;;;;;10071944;28;20121;-60
2022/11/17 10:29:10;;;;;;;1.58;0.70;;;14.60;99.90;;;;;;10073461;28;20028;-60
2022/11/17 10:34:01;;;;;;;0.98;0.50;;;14.50;99.90;;;;;;10077670;28;20768;-61
2022/11/17 10:38:54;;;;;;;2.90;1.00;;;14.20;99.90;;;;;;10070957;28;20041;-59
2022/11/17 10:43:59;;;;;;;3.40;0.82;;;14.00;99.90;;;;;;10074974;28;20594;-67
2022/11/17 10:48:56;;;;;;;4.18;1.10;;;13.80;99.90;;;;;;10069232;28;20025;-68
2022/11/17 10:54:18;;;;;;;1.85;1.00;;;13.90;99.90;;;;;;10066623;28;20118;-68
2022/11/17 10:59:08;;;;;;;3.17;1.75;;;13.90;99.90;;;;;;10076147;28;20041;-64
2022/11/17 11:04:00;;;;;;;3.22;1.00;;;14.10;99.90;;;;;;10075735;28;20036;-68
2022/11/17 11:09:12;;;;;;;4.82;1.48;;;14.20;99.90;;;;;;10077120;28;20547;-61
2022/11/17 11:14:16;;;;;;;2.65;1.10;;;14.40;99.90;;;;;;10071438;28;20013;-64
2022/11/17 11:19:13;;;;;;;4.50;1.88;;;14.60;99.90;;;;;;10067427;28;20053;-70
2022/11/17 11:25:01;;;;;;;4.50;1.92;;;15.00;99.90;;;;;;10073521;28;20488;-68
2022/11/17 11:30:00;;;;;;;2.92;1.58;;;15.30;99.90;;;;;;9923671;28;20069;-67
2022/11/17 11:35:18;;;;;;;2.38;0.90;;;15.60;99.90;;;;;;10023578;28;20068;-69
2022/11/17 11:40:25;;;;;;;8.95;1.67;;;15.70;99.90;;;;;;10066623;28;20064;-61
2022/11/17 11:45:18;;;;;;;5.00;1.90;;;15.80;99.90;;;;;;10068931;28;20021;-62
2022/11/17 11:50:30;;;;;;;2.92;0.90;;;15.90;99.90;;;;;;10073889;28;20094;-64
2022/11/17 11:55:29;;;;;;;3.67;1.60;;;15.70;99.90;;;;;;10080466;28;20500;-64
2022/11/17 12:00:20;;;;;;;4.88;1.67;;;15.80;99.90;;;;;;10079201;28;20091;-66
2022/11/17 12:05:20;;;;;;;4.43;1.13;;;16.00;99.90;;;;;;10080754;28;20033;-69
2022/11/17 12:10:24;;;;;;;2.40;1.00;;;16.10;99.90;;;;;;10088821;28;20045;-66
2022/11/17 12:15:17;;;;;;;3.70;1.98;;;16.10;99.90;;;;;;10083468;28;20025;-62
2022/11/17 12:20:30;;;;;;;6.00;1.55;;;16.00;99.90;;;;;;10081322;28;20065;-60
2022/11/17 12:25:27;;;;;;;4.22;1.15;;;16.00;99.90;;;;;;10087738;28;20025;-61
2022/11/17 12:30:29;;;;;;;4.75;2.10;;;16.20;99.90;;;;;;10076795;28;20036;-66
2022/11/17 12:35:32;;;;;;;6.95;1.50;;;16.40;99.90;;;;;;10085605;28;20055;-60
2022/11/17 12:40:38;;;;;;;4.47;1.60;;;16.50;99.90;;;;;;10086520;28;20036;-63
2022/11/17 12:45:29;;;;;;;;;;;16.40;99.90;;;;;;10070626;28;20021;-65
2022/11/17 12:50:36;;;;;;;5.30;1.17;;;16.70;99.90;;;;;;10069726;28;19984;-60
2022/11/17 12:55:58;;;;;;;4.93;1.92;;;16.50;99.90;;;;;;10068176;28;20025;-64
2022/11/17 13:01:11;;;;;;;3.42;2.08;;;16.40;99.90;;;;;;10069821;28;20273;-69
2022/11/17 13:06:07;;;;;;;4.63;2.00;;;16.10;99.90;;;;;;10071547;28;20025;-63
2022/11/17 13:11:06;;;;;;;6.13;1.25;;;16.00;99.90;;;;;;10076484;28;20037;-67
2022/11/17 13:15:59;;;;;;;3.92;1.40;;;16.00;99.90;;;;;;10068035;28;20131;-64
2022/11/17 13:20:50;;;;;;;3.50;1.27;;;15.90;99.90;;;;;;10060057;28;20487;-63
2022/11/17 13:25:40;;;;;;;2.45;0.88;;;15.90;99.90;;;;;;10071242;28;20032;-71
2022/11/17 13:30:32;;;;;;;7.00;1.25;;;15.90;99.90;;;;;;10092095;28;20029;-60
2022/11/17 13:35:34;;;;;;;2.28;1.38;;;15.90;99.90;;;;;;10073699;28;20077;-65
2022/11/17 13:40:25;;;;;;;6.65;1.25;;;15.90;99.90;;;;;;10079214;28;20075;-60
2022/11/17 13:45:16;;;;;;;5.10;1.52;;;15.90;99.90;;;;;;10090574;28;20395;-60
2022/11/17 13:50:28;;;;;;;6.22;1.45;;;15.90;99.90;;;;;;10085580;28;20029;-62
2022/11/17 13:55:20;;;;;;;7.07;1.50;;;15.90;99.90;;;;;;10060690;28;20156;-65
2022/11/17 14:00:16;;;;;;;7.47;2.60;;;15.90;99.90;;;;;;10074440;28;20037;-64
2022/11/17 14:05:18;;;;;;;3.38;1.10;;;16.00;99.90;;;;;;10075854;28;20026;-67
2022/11/17 14:10:21;;;;;;;6.43;1.50;;;15.90;99.90;;;;;;10077705;28;20388;-67
2022/11/17 14:15:22;;;;;;;4.07;2.22;;;15.80;99.90;;;;;;10086326;28;20152;-60
2022/11/17 14:20:19;;;;;;;4.95;2.20;;;15.70;99.90;;;;;;10075257;28;20044;-74
2022/11/17 14:25:11;;;;;;;3.28;1.20;;;15.70;99.90;;;;;;10079853;28;20017;-74
2022/11/17 14:30:04;;;;;;;4.65;1.27;;;15.60;99.90;;;;;;10072039;28;20029;-73
2022/11/17 14:34:54;;;;;;;5.15;1.92;;;15.70;99.90;;;;;;10072683;28;20521;-75
2022/11/17 14:39:45;;;;;;;3.63;1.27;;;15.60;99.90;;;;;;10070404;28;20037;-61
2022/11/17 14:44:36;;;;;;;4.55;1.80;;;15.60;99.90;;;;;;10085578;28;20506;-63
2022/11/17 14:49:27;;;;;;;3.42;1.55;;;15.60;99.90;;;;;;10076138;28;20017;-62
2022/11/17 14:54:17;;;;;;;4.35;1.65;;;15.60;99.90;;;;;;10076985;28;20033;-65
2022/11/17 14:59:10;;;;;;;5.55;1.38;;;15.60;99.90;;;;;;10075075;28;20041;-66
2022/11/17 15:04:03;;;;;;;4.30;1.65;;;15.60;99.90;;;;;;10074480;28;20495;-63
2022/11/17 15:08:56;;;;;;;6.68;2.70;;;15.50;99.90;;;;;;10076484;28;20187;-62
2022/11/17 15:13:46;;;;;;;2.85;1.23;;;15.60;99.90;;;;;;10076419;28;20032;-60
2022/11/17 15:18:37;;;;;;;4.57;1.30;;;15.50;99.90;;;;;;10075846;28;20039;-59
2022/11/17 15:23:28;;;;;;;4.97;1.08;;;15.50;99.90;;;;;;10071247;28;20086;-59
2022/11/17 15:28:18;;;;;;;7.78;1.42;;;15.40;99.90;;;;;;10073503;28;20021;-58
2022/11/17 15:33:09;;;;;;;3.72;1.40;;;15.40;99.90;;;;;;10080918;28;20057;-58
2022/11/17 15:38:00;;;;;;;5.70;1.50;;;15.30;99.90;;;;;;10078568;28;20029;-62
2022/11/17 15:42:53;;;;;;;4.25;1.55;;;15.30;99.90;;;;;;10076673;28;20383;-60
2022/11/17 15:47:45;;;;;;;6.63;1.40;;;15.20;99.90;;;;;;10065476;28;20032;-59
2022/11/17 15:52:36;;;;;;;4.72;1.20;;;15.20;99.90;;;;;;10067909;28;20017;-61
2022/11/17 15:57:26;;;;;;;3.38;1.42;;;15.10;99.90;;;;;;10065152;28;20041;-60
2022/11/17 16:02:17;;;;;;;3.22;1.08;;;15.00;99.90;;;;;;10075546;28;20027;-61
2022/11/17 16:07:07;;;;;;;3.63;1.67;;;15.00;99.90;;;;;;10073172;28;20040;-60
2022/11/17 16:11:58;;;;;;;1.13;0.82;;;14.90;99.90;;;;;;10070031;28;20072;-60
2022/11/17 16:16:49;;;;;;;5.20;2.28;;;14.90;99.90;;;;;;10078137;28;20088;-60
2022/11/17 16:21:40;;;;;;;2.97;0.95;;;14.90;99.90;;;;;;10064558;28;20032;-60
2022/11/17 16:26:31;;;;;;;4.05;1.15;;;14.90;99.90;;;;;;10069676;28;20449;-61
2022/11/17 16:31:23;;;;;;;3.00;1.25;;;14.80;99.90;;;;;;10062642;28;20258;-60
2022/11/17 16:36:15;;;;;;;2.83;0.90;;;14.80;99.90;;;;;;10063902;28;20049;-60
2022/11/17 16:41:06;;;;;;;3.30;1.25;;;14.80;99.90;;;;;;10077942;28;20044;-60
2022/11/17 16:45:57;;;;;;;1.30;0.77;;;14.70;99.90;;;;;;10080022;28;20205;-63
2022/11/17 16:50:47;;;;;;;3.90;0.65;;;14.70;99.90;;;;;;10077486;28;20029;-59
2022/11/17 16:55:39;;;;;;;3.47;0.70;;;14.70;99.90;;;;;;10088524;28;20021;-60
2022/11/17 17:00:30;;;;;;;3.50;0.88;;;14.60;99.90;;;;;;10063295;28;20030;-63
2022/11/17 17:05:21;;;;;;;2.72;1.10;;;14.60;99.90;;;;;;10061482;28;20036;-60
2022/11/17 17:10:11;;;;;;;4.53;1.05;;;14.70;99.90;;;;;;10084589;28;20813;-63
2022/11/17 17:15:02;;;;;;;4.22;1.13;;;14.70;99.90;;;;;;10060936;28;20523;-61
2022/11/17 17:19:53;;;;;;;3.33;1.58;;;14.70;99.90;;;;;;10086509;28;20967;-61
2022/11/17 17:24:44;;;;;;;4.30;1.00;;;14.70;99.90;;;;;;10060892;28;20030;-65
2022/11/17 17:29:34;;;;;;;2.70;0.77;;;14.60;99.90;;;;;;10066781;28;20060;-59
2022/11/17 17:34:25;;;;;;;1.38;0.60;;;14.60;99.90;;;;;;10058422;28;20176;-60
2022/11/17 17:39:16;;;;;;;1.30;0.65;;;14.50;99.90;;;;;;10068137;28;20049;-60
2022/11/17 17:44:07;;;;;;;1.60;0.52;;;14.60;99.90;;;;;;10059988;28;20089;-66
2022/11/17 17:48:58;;;;;;;3.10;0.40;;;14.40;99.90;;;;;;10077151;28;20451;-64
2022/11/17 17:53:49;;;;;;;1.90;0.60;;;14.00;99.90;;;;;;10085650;28;20025;-62
2022/11/17 17:58:40;;;;;;;3.45;0.77;;;13.20;99.90;;;;;;10080455;28;20025;-64
2022/11/17 18:03:31;;;;;;;1.30;0.60;;;12.40;99.90;;;;;;10085138;28;20025;-67
2022/11/17 18:08:22;;;;;;;0.80;0.40;;;11.60;99.90;;;;;;10082681;28;20032;-63
2022/11/17 18:13:13;;;;;;;0.90;0.50;;;11.60;99.90;;;;;;10083271;28;20803;-61
2022/11/17 18:18:03;;;;;;;0.85;0.50;;;11.40;99.90;;;;;;10081383;28;20035;-57
2022/11/17 18:22:55;;;;;;;1.05;0.80;;;11.40;99.90;;;;;;10082820;28;20123;-63
2022/11/17 18:27:46;;;;;;;3.20;1.27;;;11.30;99.90;;;;;;10083873;28;20581;-64
2022/11/17 18:32:36;;;;;;;1.00;0.57;;;11.40;99.90;;;;;;10079886;28;20458;-64
2022/11/17 18:37:27;;;;;;;3.05;1.15;;;11.40;99.90;;;;;;10079665;28;20901;-60
2022/11/17 18:42:18;;;;;;;1.67;0.73;;;11.30;99.90;;;;;;10083125;28;20029;-61
2022/11/17 18:47:08;;;;;;;1.27;0.70;;;11.30;99.90;;;;;;10081259;28;20033;-58
2022/11/17 18:51:59;;;;;;;2.75;0.77;;;11.30;99.90;;;;;;10077197;28;20261;-58
2022/11/17 18:56:50;;;;;;;2.45;0.77;;;11.30;99.90;;;;;;10065285;28;20041;-63
2022/11/17 19:01:41;;;;;;;1.45;0.80;;;11.20;99.90;;;;;;10079123;28;20036;-61
2022/11/17 19:06:32;;;;;;;3.47;0.73;;;11.40;99.90;;;;;;10072220;28;20110;-62
2022/11/17 19:11:23;;;;;;;1.42;0.80;;;11.40;99.90;;;;;;10071474;28;20052;-60
2022/11/17 19:16:17;;;;;;;1.58;0.80;;;11.50;99.90;;;;;;10080572;28;20563;-60
2022/11/17 19:21:10;;;;;;;2.38;0.85;;;11.40;99.90;;;;;;10070050;28;20075;-61
2022/11/17 19:26:20;;;;;;;1.58;0.88;;;11.60;99.90;;;;;;10069556;28;20019;-64
2022/11/17 19:31:16;;;;;;;3.40;1.00;;;11.60;99.90;;;;;;10067925;28;20044;-65
2022/11/17 19:36:08;;;;;;;;;;;11.60;99.90;;;;;;10074520;28;20416;-61
2022/11/17 19:41:07;;;;;;;3.70;0.82;;;11.70;99.90;;;;;;10067965;28;19971;-60
2022/11/17 19:45:59;;;;;;;4.22;1.15;;;11.70;99.90;;;;;;10062206;28;20484;-58
2022/11/17 19:50:50;;;;;;;1.60;0.85;;;11.80;99.90;;;;;;10073926;28;20463;-59
2022/11/17 19:55:41;;;;;;;2.28;1.45;;;11.70;99.90;;;;;;10068549;28;20032;-58
2022/11/17 20:00:32;;;;;;;4.32;1.45;;;11.70;99.90;;;;;;10076191;28;20064;-60
2022/11/17 20:05:22;;;;;;;4.35;1.55;;;11.70;99.90;;;;;;10084591;28;20037;-60
2022/11/17 20:10:13;;;;;;;2.13;0.85;;;11.70;99.90;;;;;;10088814;28;20491;-59
2022/11/17 20:15:04;;;;;;;1.60;0.88;;;11.60;99.90;;;;;;10091094;28;20478;-63
2022/11/17 20:19:54;;;;;;;1.90;0.70;;;11.60;99.90;;;;;;10078077;28;20435;-61
2022/11/17 20:24:45;;;;;;;1.05;0.50;;;11.50;99.90;;;;;;10070737;28;20032;-62
2022/11/17 20:29:36;;;;;;;1.20;0.65;;;11.50;99.90;;;;;;10073775;28;20125;-61
2022/11/17 20:34:26;;;;;;;1.52;0.40;;;11.60;99.90;;;;;;10065689;28;20055;-61
2022/11/17 20:39:17;;;;;;;4.03;1.00;;;11.60;99.90;;;;;;10080504;28;20035;-59
2022/11/17 20:44:22;;;;;;;2.70;1.33;;;11.50;99.90;;;;;;10077201;28;20332;-64
2022/11/17 20:49:13;;;;;;;1.73;0.73;;;11.50;99.90;;;;;;10081532;28;20100;-61
2022/11/17 20:54:03;;;;;;;2.83;0.98;;;11.50;99.90;;;;;;10074851;28;20112;-62
2022/11/17 20:58:54;;;;;;;1.88;0.52;;;11.60;99.90;;;;;;10073897;28;20034;-62
2022/11/17 21:03:45;;;;;;;0.82;0.60;;;11.50;99.90;;;;;;10074414;28;20022;-59
2022/11/17 21:08:37;;;;;;;0.90;0.60;;;11.40;99.90;;;;;;10087986;28;20037;-62
2022/11/17 21:13:30;;;;;;;1.17;0.80;;;11.50;99.90;;;;;;10083893;28;20033;-63
2022/11/17 21:18:24;;;;;;;0.93;0.65;;;11.50;99.90;;;;;;10081733;28;20037;-67
2022/11/17 21:23:14;;;;;;;0.70;0.50;;;11.50;99.90;;;;;;10081381;28;20029;-69
2022/11/17 21:28:05;;;;;;;1.77;0.57;;;11.60;99.90;;;;;;10075564;28;20029;-69
2022/11/17 21:32:56;;;;;;;1.27;0.82;;;11.60;99.90;;;;;;10088204;28;20035;-69
2022/11/17 21:37:46;;;;;;;1.77;0.63;;;11.50;99.90;;;;;;10079842;28;20037;-68
2022/11/17 21:42:37;;;;;;;1.23;0.60;;;11.60;99.90;;;;;;10076614;28;20063;-62
2022/11/17 21:47:28;;;;;;;1.63;1.10;;;11.70;99.90;;;;;;10068260;28;20036;-69
2022/11/17 21:52:18;;;;;;;2.22;1.25;;;11.70;99.90;;;;;;10072268;28;20029;-63
2022/11/17 21:57:09;;;;;;;2.35;1.23;;;11.60;99.90;;;;;;10071498;28;20053;-63
2022/11/17 22:02:00;;;;;;;1.00;0.63;;;11.70;99.90;;;;;;10067531;28;20036;-68
2022/11/17 22:06:50;;;;;;;3.13;1.23;;;11.70;99.90;;;;;;10063628;28;20044;-64
2022/11/17 22:11:41;;;;;;;3.70;1.65;;;11.70;99.90;;;;;;10070243;28;20023;-63
2022/11/17 22:16:32;;;;;;;2.58;1.10;;;11.60;99.90;;;;;;10077907;28;20183;-64
2022/11/17 22:21:23;;;;;;;1.75;0.88;;;11.70;99.90;;;;;;10071539;28;20108;-64
2022/11/17 22:26:13;;;;;;;3.90;1.63;;;11.60;99.90;;;;;;10080980;28;20099;-64
2022/11/17 22:31:06;;;;;;;2.38;1.05;;;11.60;99.90;;;;;;10068809;28;20115;-63
2022/11/17 22:36:01;;;;;;;1.83;0.90;;;11.70;99.90;;;;;;10062484;28;20069;-63
2022/11/17 22:40:57;;;;;;;1.58;1.02;;;11.70;99.90;;;;;;10076557;28;20029;-63
2022/11/17 22:45:48;;;;;;;1.85;1.13;;;11.70;99.90;;;;;;10061070;28;20117;-65
2022/11/17 22:50:38;;;;;;;1.40;0.90;;;11.60;99.90;;;;;;10080744;28;20657;-65
2022/11/17 22:55:32;;;;;;;2.55;0.70;;;11.60;99.90;;;;;;10084934;28;20029;-65
2022/11/17 23:00:23;;;;;;;1.40;0.70;;;11.60;99.90;;;;;;10078369;28;20040;-64
2022/11/17 23:05:13;;;;;;;2.13;0.52;;;11.60;99.90;;;;;;10074606;28;21948;-65
2022/11/17 23:10:04;;;;;;;0.77;0.70;;;11.70;99.90;;;;;;10078061;28;20542;-61
2022/11/17 23:14:55;;;;;;;2.00;0.77;;;11.70;99.90;;;;;;10078736;28;20029;-60
2022/11/17 23:19:46;;;;;;;2.90;0.47;;;11.70;99.90;;;;;;10069534;28;20025;-61
2022/11/17 23:24:36;;;;;;;0.50;0.47;;;11.60;99.90;;;;;;10068252;28;20400;-68
2022/11/17 23:29:27;;;;;;;1.08;0.60;;;11.70;99.90;;;;;;10077668;28;20491;-66
2022/11/17 23:34:18;;;;;;;1.13;0.80;;;11.70;99.90;;;;;;10083027;28;20518;-65
2022/11/17 23:39:08;;;;;;;1.58;1.35;;;11.60;99.90;;;;;;10096001;28;20104;-65
2022/11/17 23:43:59;;;;;;;1.67;0.70;;;11.60;99.90;;;;;;10093901;28;20139;-61
2022/11/17 23:48:50;;;;;;;0.90;0.65;;;11.70;99.90;;;;;;10087885;28;20021;-64
2022/11/17 23:53:41;;;;;;;1.13;0.43;;;11.60;99.90;;;;;;10091332;28;20125;-66
2022/11/17 23:58:32;;;;;;;0.75;0.45;;;11.60;99.90;;;;;;10096533;28;20064;-63
